Time;durP1;ratioP1;P1;durP2;ratioP2;P2;SDS_P1;SDS_P2;PMS_P1;PMS_P2;Temp;Humidity;BMP_temperature;BMP_pressure;BME280_temperature;BME280_humidity;BME280_pressure;Samples;Min_cycle;Max_cycle;Signal;HPM_P1;HPM_P2
2023/03/30 00:02:22;;;;;;;12.63;7.75;;;10.30;93.30;;;;;;5014917;28;20048;-77
2023/03/30 00:04:51;;;;;;;14.68;7.47;;;10.40;93.30;;;;;;5008163;28;20022;-77
2023/03/30 00:07:18;;;;;;;18.80;8.30;;;10.40;93.30;;;;;;5006906;28;20123;-78
2023/03/30 00:09:45;;;;;;;17.63;8.13;;;10.30;93.30;;;;;;5006722;28;20038;-78
2023/03/30 00:12:12;;;;;;;16.80;7.70;;;10.40;93.20;;;;;;5007290;28;20384;-78
2023/03/30 00:14:41;;;;;;;16.63;7.60;;;10.40;93.20;;;;;;5018104;28;20030;-77
2023/03/30 00:17:08;;;;;;;14.68;8.75;;;10.30;93.30;;;;;;5016729;28;20100;-77
2023/03/30 00:19:37;;;;;;;14.60;7.82;;;10.20;93.40;;;;;;5009627;28;20388;-80
2023/03/30 00:22:07;;;;;;;16.85;7.85;;;10.20;93.50;;;;;;5005400;28;20037;-78
2023/03/30 00:24:34;;;;;;;15.98;8.50;;;10.10;93.70;;;;;;5008462;28;20030;-78
2023/03/30 00:27:00;;;;;;;17.60;7.85;;;10.00;93.70;;;;;;5006962;28;20065;-77
2023/03/30 00:29:26;;;;;;;15.48;7.13;;;10.00;93.90;;;;;;5014400;28;20108;-76
2023/03/30 00:31:52;;;;;;;18.15;9.38;;;10.00;93.90;;;;;;5016278;28;20030;-77
2023/03/30 00:34:18;;;;;;;14.10;7.75;;;10.00;94.00;;;;;;5011623;28;20029;-76
2023/03/30 00:36:45;;;;;;;20.23;8.68;;;10.00;94.00;;;;;;5010853;28;20539;-77
2023/03/30 00:39:12;;;;;;;13.45;7.30;;;10.00;94.10;;;;;;5007695;28;20038;-78
2023/03/30 00:41:37;;;;;;;17.80;7.60;;;10.00;94.20;;;;;;5017029;28;20033;-77
2023/03/30 00:44:45;;;;;;;14.23;7.85;;;9.90;94.30;;;;;;5020847;28;20091;-78
2023/03/30 00:47:11;;;;;;;14.63;8.43;;;9.90;94.20;;;;;;5007290;28;20447;-78
2023/03/30 00:49:38;;;;;;;16.92;9.43;;;10.00;94.20;;;;;;5013404;28;20045;-77
2023/03/30 00:52:04;;;;;;;14.95;7.35;;;9.90;94.30;;;;;;5019662;28;20041;-77
2023/03/30 00:54:29;;;;;;;15.02;7.35;;;9.90;94.40;;;;;;5020537;28;20038;-77
2023/03/30 00:56:55;;;;;;;21.55;8.45;;;9.90;94.30;;;;;;5020501;28;20080;-77
2023/03/30 00:59:21;;;;;;;13.30;8.68;;;9.90;94.40;;;;;;5021744;28;20430;-77
2023/03/30 01:01:48;;;;;;;14.80;7.93;;;9.90;94.40;;;;;;5015550;28;20030;-77
2023/03/30 01:04:19;;;;;;;13.32;7.20;;;9.90;94.40;;;;;;5015074;28;20034;-77
2023/03/30 01:06:47;;;;;;;16.40;9.00;;;9.90;94.40;;;;;;5011668;28;20034;-77
2023/03/30 01:09:15;;;;;;;16.50;8.85;;;9.90;94.40;;;;;;5018094;28;20033;-79
2023/03/30 01:11:42;;;;;;;16.73;8.35;;;9.90;94.40;;;;;;5013641;28;20026;-77
2023/03/30 01:14:10;;;;;;;16.25;9.57;;;10.00;94.40;;;;;;5014051;28;20041;-78
2023/03/30 01:17:05;;;;;;;22.33;8.23;;;9.90;94.40;;;;;;5025771;28;20065;-78
2023/03/30 01:19:51;;;;;;;16.17;8.75;;;9.90;94.50;;;;;;5011401;28;20172;-77
2023/03/30 01:22:38;;;;;;;15.30;7.82;;;9.90;94.50;;;;;;4988619;28;20088;-78
2023/03/30 01:25:37;;;;;;;16.05;8.07;;;9.90;94.50;;;;;;5012498;28;20040;-77
2023/03/30 01:28:24;;;;;;;14.38;7.60;;;9.90;94.40;;;;;;5018860;28;20038;-77
2023/03/30 01:30:58;;;;;;;15.35;8.93;;;9.90;94.50;;;;;;5017344;28;20022;-77
2023/03/30 01:33:46;;;;;;;15.43;8.25;;;9.80;94.60;;;;;;5027505;28;20022;-77
2023/03/30 01:36:31;;;;;;;14.13;8.30;;;9.70;94.80;;;;;;5017813;28;20029;-77
2023/03/30 01:39:28;;;;;;;17.48;8.85;;;9.70;95.00;;;;;;5021225;28;20125;-77
2023/03/30 01:42:01;;;;;;;14.98;8.30;;;9.70;95.00;;;;;;5011787;28;20026;-78
2023/03/30 01:44:46;;;;;;;17.33;8.57;;;9.70;95.00;;;;;;5021024;28;20521;-77
2023/03/30 01:48:04;;;;;;;17.13;8.00;;;9.70;95.00;;;;;;5020195;28;20060;-77
2023/03/30 01:50:50;;;;;;;13.45;7.68;;;9.60;95.10;;;;;;5002363;28;20053;-77
2023/03/30 01:53:21;;;;;;;15.00;8.65;;;9.70;95.00;;;;;;5011873;28;20030;-77
2023/03/30 01:55:47;;;;;;;17.85;8.90;;;9.60;95.10;;;;;;5017402;28;20112;-78
2023/03/30 01:58:26;;;;;;;15.38;8.82;;;9.50;95.30;;;;;;5028483;28;20427;-77
2023/03/30 02:00:53;;;;;;;15.93;8.55;;;9.50;95.30;;;;;;5010099;28;20021;-77
2023/03/30 02:03:29;;;;;;;19.17;9.57;;;9.50;95.30;;;;;;5015827;28;20056;-77
2023/03/30 02:06:02;;;;;;;19.02;8.85;;;9.50;95.50;;;;;;5007041;28;20022;-77
2023/03/30 02:08:31;;;;;;;16.45;7.88;;;9.50;95.60;;;;;;5014978;28;20025;-77
2023/03/30 02:10:58;;;;;;;16.30;7.97;;;9.40;95.60;;;;;;5011619;28;20100;-77
2023/03/30 02:13:27;;;;;;;15.15;8.02;;;9.40;95.60;;;;;;5011063;28;20469;-77
2023/03/30 02:16:02;;;;;;;15.82;8.75;;;9.40;95.70;;;;;;5010538;28;20032;-77
2023/03/30 02:18:28;;;;;;;15.35;8.57;;;9.40;95.70;;;;;;5011130;28;20057;-76
2023/03/30 02:20:58;;;;;;;17.58;8.65;;;9.40;95.80;;;;;;5009797;28;20507;-76
2023/03/30 02:23:29;;;;;;;12.13;7.85;;;9.40;95.90;;;;;;5016506;28;20037;-77
2023/03/30 02:25:56;;;;;;;16.45;8.48;;;9.50;95.90;;;;;;5010579;28;20040;-77
2023/03/30 02:28:22;;;;;;;25.05;9.70;;;9.60;95.70;;;;;;5008730;28;20034;-77
2023/03/30 02:30:48;;;;;;;16.08;8.52;;;9.60;95.50;;;;;;5014846;28;20383;-77
2023/03/30 02:34:01;;;;;;;16.55;8.70;;;9.70;95.50;;;;;;5024846;28;20044;-78
2023/03/30 02:36:36;;;;;;;12.90;7.15;;;9.80;95.30;;;;;;4999538;28;20431;-77
2023/03/30 02:39:39;;;;;;;17.08;8.10;;;9.80;95.20;;;;;;5009165;28;20022;-77
2023/03/30 02:42:26;;;;;;;17.70;8.63;;;9.50;95.60;;;;;;5007835;28;20472;-79
2023/03/30 02:45:10;;;;;;;14.05;8.52;;;9.40;96.00;;;;;;5017202;28;20395;-77
2023/03/30 02:48:00;;;;;;;13.77;8.02;;;9.50;95.80;;;;;;5014065;28;20036;-78
2023/03/30 02:50:39;;;;;;;14.18;7.93;;;9.50;95.90;;;;;;5010303;28;20030;-76
2023/03/30 02:53:44;;;;;;;19.08;8.68;;;9.50;95.80;;;;;;5019184;28;20033;-76
2023/03/30 02:56:27;;;;;;;18.65;9.75;;;9.50;96.00;;;;;;5009997;28;20376;-77
2023/03/30 02:59:04;;;;;;;17.73;8.27;;;9.50;95.90;;;;;;5006790;28;20310;-76
2023/03/30 03:01:36;;;;;;;14.27;7.82;;;9.40;96.00;;;;;;5009271;28;20025;-77
2023/03/30 03:04:03;;;;;;;17.38;8.77;;;9.40;95.90;;;;;;5003482;28;20088;-76
2023/03/30 03:06:31;;;;;;;16.35;8.57;;;9.50;95.70;;;;;;5004029;28;20036;-76
2023/03/30 03:08:57;;;;;;;22.55;8.98;;;9.50;95.80;;;;;;5013745;28;20033;-76
2023/03/30 03:11:22;;;;;;;16.50;9.10;;;9.40;96.00;;;;;;5016043;28;20216;-76
2023/03/30 03:13:49;;;;;;;17.40;9.13;;;9.30;96.10;;;;;;5016977;28;20104;-77
2023/03/30 03:16:16;;;;;;;14.52;8.43;;;9.40;96.20;;;;;;5011271;28;20547;-75
2023/03/30 03:18:42;;;;;;;14.15;8.40;;;9.30;96.20;;;;;;5006991;28;20099;-75
2023/03/30 03:21:09;;;;;;;18.38;8.60;;;9.30;96.20;;;;;;5015003;28;20029;-77
2023/03/30 03:23:35;;;;;;;14.35;8.00;;;9.30;96.20;;;;;;5010245;28;20532;-77
2023/03/30 03:26:02;;;;;;;16.02;9.02;;;9.20;96.30;;;;;;5002462;28;20022;-76
2023/03/30 03:28:28;;;;;;;14.98;8.68;;;9.20;96.40;;;;;;5012115;28;20091;-77
2023/03/30 03:30:55;;;;;;;18.75;9.27;;;9.20;96.40;;;;;;5006102;28;20057;-76
2023/03/30 03:33:21;;;;;;;18.15;10.00;;;9.20;96.30;;;;;;5002263;28;20037;-76
2023/03/30 03:35:47;;;;;;;16.67;8.88;;;9.20;96.30;;;;;;5026879;28;20104;-76
2023/03/30 03:38:13;;;;;;;17.23;8.48;;;9.20;96.40;;;;;;5003764;28;20026;-76
2023/03/30 03:40:40;;;;;;;17.90;8.68;;;9.10;96.40;;;;;;5002765;28;20435;-76
2023/03/30 03:43:06;;;;;;;16.70;9.27;;;9.10;96.50;;;;;;5000898;28;20121;-76
2023/03/30 03:45:32;;;;;;;16.40;8.93;;;9.10;96.50;;;;;;5001644;28;20034;-75
2023/03/30 03:47:57;;;;;;;19.30;9.20;;;9.20;96.40;;;;;;5000607;28;20036;-75
2023/03/30 03:50:23;;;;;;;15.05;9.07;;;9.20;96.50;;;;;;5001233;28;20030;-76
2023/03/30 03:52:49;;;;;;;13.65;8.77;;;9.10;96.50;;;;;;5005797;28;20480;-76
2023/03/30 03:55:15;;;;;;;15.73;8.68;;;9.20;96.40;;;;;;5003490;28;20029;-76
2023/03/30 03:57:41;;;;;;;14.70;9.10;;;9.20;96.30;;;;;;5001290;28;20373;-76
2023/03/30 04:00:15;;;;;;;14.88;8.98;;;9.20;96.20;;;;;;5001842;28;20827;-76
2023/03/30 04:02:41;;;;;;;21.52;9.85;;;9.20;96.30;;;;;;5014578;28;20045;-76
2023/03/30 04:05:07;;;;;;;18.02;8.88;;;9.20;96.20;;;;;;5002917;28;20037;-76
2023/03/30 04:07:34;;;;;;;20.15;9.57;;;9.30;96.20;;;;;;4999149;28;20030;-77
2023/03/30 04:10:01;;;;;;;19.63;9.82;;;9.30;96.20;;;;;;5012317;28;20045;-75
2023/03/30 04:12:28;;;;;;;17.77;9.18;;;9.30;96.10;;;;;;5001560;28;20081;-75
2023/03/30 04:14:54;;;;;;;15.57;8.85;;;9.40;96.00;;;;;;5002252;28;20034;-75
2023/03/30 04:17:22;;;;;;;18.30;8.48;;;9.40;96.00;;;;;;5010390;28;21081;-76
2023/03/30 04:19:55;;;;;;;16.40;8.80;;;9.40;96.00;;;;;;5009765;28;20021;-76
2023/03/30 04:22:23;;;;;;;15.52;8.63;;;9.40;96.10;;;;;;5006927;28;20037;-75
2023/03/30 04:24:49;;;;;;;17.70;9.15;;;9.30;96.20;;;;;;5000837;28;20029;-76
2023/03/30 04:27:18;;;;;;;18.90;9.55;;;9.30;96.40;;;;;;5006695;28;20112;-76
2023/03/30 04:29:44;;;;;;;16.83;8.90;;;9.30;96.30;;;;;;4999302;28;20030;-76
2023/03/30 04:32:11;;;;;;;16.58;8.95;;;9.40;96.20;;;;;;5001684;28;20055;-76
2023/03/30 04:34:42;;;;;;;17.83;9.07;;;9.30;96.60;;;;;;5000616;28;20033;-77
2023/03/30 04:37:09;;;;;;;15.82;9.95;;;9.20;96.80;;;;;;5001455;28;20113;-77
2023/03/30 04:39:35;;;;;;;22.45;11.88;;;9.40;96.60;;;;;;5011898;28;20066;-77
2023/03/30 04:42:02;;;;;;;21.58;11.40;;;9.30;96.80;;;;;;5008571;28;20030;-77
2023/03/30 04:44:29;;;;;;;18.90;9.18;;;9.20;97.20;;;;;;5000115;28;20057;-76
2023/03/30 04:46:55;;;;;;;15.10;8.63;;;9.20;96.90;;;;;;5005570;28;20045;-77
2023/03/30 04:49:21;;;;;;;17.98;8.60;;;9.20;97.10;;;;;;5000209;28;20042;-77
2023/03/30 04:51:47;;;;;;;17.58;9.02;;;9.10;97.20;;;;;;5008390;28;20032;-77
2023/03/30 04:54:13;;;;;;;19.55;8.57;;;9.10;97.20;;;;;;5009144;28;20026;-79
2023/03/30 04:56:38;;;;;;;16.17;8.77;;;9.10;97.30;;;;;;4997200;28;20037;-76
2023/03/30 04:59:04;;;;;;;17.85;9.75;;;9.00;97.30;;;;;;5010879;28;20038;-77
2023/03/30 05:01:30;;;;;;;24.27;10.45;;;9.00;97.30;;;;;;5011966;28;20041;-76
2023/03/30 05:03:56;;;;;;;19.00;8.82;;;9.00;97.20;;;;;;5004953;28;20108;-77
2023/03/30 05:06:21;;;;;;;15.27;8.32;;;9.00;97.10;;;;;;5008097;28;20061;-76
2023/03/30 05:08:47;;;;;;;18.63;8.98;;;9.00;97.30;;;;;;4998420;28;20045;-77
2023/03/30 05:11:13;;;;;;;18.65;9.60;;;8.90;97.50;;;;;;5011353;28;20063;-78
2023/03/30 05:13:39;;;;;;;14.65;9.43;;;9.00;97.30;;;;;;5001847;28;20038;-77
2023/03/30 05:16:05;;;;;;;16.85;9.05;;;9.00;97.20;;;;;;4999182;28;20099;-77
2023/03/30 05:18:31;;;;;;;16.20;8.90;;;9.10;97.20;;;;;;4998301;28;20109;-77
2023/03/30 05:20:57;;;;;;;20.15;10.27;;;9.10;97.30;;;;;;5002931;28;20029;-76
2023/03/30 05:23:24;;;;;;;24.08;10.55;;;9.10;97.30;;;;;;4999403;28;20069;-76
2023/03/30 05:25:50;;;;;;;19.80;9.38;;;9.10;97.50;;;;;;5011522;28;20033;-76
2023/03/30 05:28:18;;;;;;;17.25;8.70;;;9.00;97.50;;;;;;4998878;28;20092;-79
2023/03/30 05:30:45;;;;;;;18.20;8.57;;;9.00;97.80;;;;;;5005163;28;20040;-76
2023/03/30 05:33:11;;;;;;;15.32;8.02;;;8.90;98.10;;;;;;5003876;28;20543;-75
2023/03/30 05:35:37;;;;;;;20.25;9.35;;;9.00;99.90;;;;;;5010505;28;20057;-76
2023/03/30 05:38:03;;;;;;;19.67;8.98;;;8.90;98.80;;;;;;5011018;28;20056;-76
2023/03/30 05:40:30;;;;;;;16.48;9.57;;;9.00;98.90;;;;;;5005195;28;20034;-76
2023/03/30 05:42:56;;;;;;;17.92;9.68;;;9.00;98.80;;;;;;4997260;28;20038;-76
2023/03/30 05:45:22;;;;;;;13.77;8.70;;;9.00;98.80;;;;;;5002494;28;20048;-77
2023/03/30 05:47:47;;;;;;;16.75;8.73;;;9.00;98.50;;;;;;5002551;28;20044;-77
2023/03/30 05:50:13;;;;;;;18.30;8.65;;;9.10;98.70;;;;;;5006809;28;20041;-77
2023/03/30 05:52:39;;;;;;;17.98;9.25;;;9.20;98.90;;;;;;5015310;28;20042;-76
2023/03/30 05:55:05;;;;;;;17.92;9.13;;;9.20;98.90;;;;;;5006347;28;20033;-76
2023/03/30 05:57:32;;;;;;;19.48;8.65;;;9.20;98.60;;;;;;5002447;28;20041;-76
2023/03/30 05:59:58;;;;;;;18.40;9.18;;;9.30;98.80;;;;;;5003203;28;20030;-77
2023/03/30 06:02:24;;;;;;;13.93;8.65;;;9.30;98.70;;;;;;4999764;28;20127;-76
2023/03/30 06:04:49;;;;;;;19.38;9.77;;;9.40;98.40;;;;;;5009649;28;20383;-76
2023/03/30 06:07:16;;;;;;;14.50;8.57;;;9.40;98.20;;;;;;5014388;28;20029;-76
2023/03/30 06:09:42;;;;;;;18.17;9.27;;;9.50;98.00;;;;;;5005087;28;20042;-78
2023/03/30 06:12:08;;;;;;;15.93;8.27;;;9.60;98.00;;;;;;5007828;28;20042;-78
2023/03/30 06:14:34;;;;;;;17.00;8.38;;;9.50;98.20;;;;;;4999079;28;20030;-79
2023/03/30 06:17:00;;;;;;;16.73;7.55;;;9.50;98.10;;;;;;5007604;28;20052;-78
2023/03/30 06:19:26;;;;;;;18.75;8.38;;;9.50;98.80;;;;;;5002796;28;20041;-78
2023/03/30 06:21:53;;;;;;;17.73;8.50;;;9.40;98.50;;;;;;4998702;28;20037;-78
2023/03/30 06:24:19;;;;;;;13.15;7.70;;;9.40;98.30;;;;;;5003864;28;20483;-77
2023/03/30 06:26:47;;;;;;;14.20;8.07;;;9.50;98.10;;;;;;5008430;28;20055;-75
2023/03/30 06:29:13;;;;;;;19.17;7.82;;;9.60;98.00;;;;;;4999894;28;20058;-77
2023/03/30 06:31:38;;;;;;;16.42;8.82;;;9.60;97.80;;;;;;4998298;28;20069;-78
2023/03/30 06:34:04;;;;;;;16.52;8.80;;;9.70;97.80;;;;;;5002812;28;20040;-77
2023/03/30 06:36:30;;;;;;;16.38;7.90;;;9.80;97.80;;;;;;5001802;28;20120;-77
2023/03/30 06:38:55;;;;;;;14.10;8.52;;;9.70;97.80;;;;;;5008744;28;20041;-77
2023/03/30 06:41:21;;;;;;;14.98;8.93;;;9.70;98.00;;;;;;4999349;28;20431;-78
2023/03/30 06:43:47;;;;;;;15.60;7.68;;;9.70;98.30;;;;;;4999314;28;20076;-79
2023/03/30 06:46:13;;;;;;;14.55;8.23;;;9.80;98.10;;;;;;4998834;28;20030;-80
2023/03/30 06:48:39;;;;;;;14.48;7.63;;;9.90;98.00;;;;;;5004681;28;20026;-80
2023/03/30 06:51:05;;;;;;;15.18;7.43;;;10.00;97.90;;;;;;5006558;28;20435;-79
2023/03/30 06:53:31;;;;;;;21.45;9.45;;;9.90;97.40;;;;;;5002505;28;20034;-78
2023/03/30 06:55:57;;;;;;;12.80;7.00;;;10.00;97.70;;;;;;5005120;28;20032;-79
2023/03/30 06:58:26;;;;;;;14.48;7.75;;;10.00;97.20;;;;;;5009573;28;20034;-78
2023/03/30 07:00:51;;;;;;;13.98;7.97;;;10.00;97.30;;;;;;5000671;28;20108;-77
2023/03/30 07:03:17;;;;;;;30.23;9.00;;;10.10;97.50;;;;;;5001916;28;20133;-78
2023/03/30 07:05:46;;;;;;;15.98;9.77;;;10.10;97.70;;;;;;5003075;28;20033;-77
2023/03/30 07:08:13;;;;;;;22.65;10.18;;;10.20;98.00;;;;;;5001693;28;20034;-76
2023/03/30 07:10:39;;;;;;;18.88;9.88;;;10.10;98.70;;;;;;5002830;28;20033;-77
2023/03/30 07:13:06;;;;;;;36.47;11.25;;;9.80;99.30;;;;;;5002202;28;20037;-78
2023/03/30 07:15:32;;;;;;;17.85;9.25;;;9.60;99.40;;;;;;4997359;28;20084;-76
2023/03/30 07:17:57;;;;;;;20.60;8.85;;;9.60;99.20;;;;;;4997463;28;20117;-74
2023/03/30 07:20:23;;;;;;;16.10;8.35;;;9.70;99.10;;;;;;5002088;28;20100;-77
2023/03/30 07:22:49;;;;;;;15.57;8.55;;;9.80;99.10;;;;;;5000979;28;20034;-77
2023/03/30 07:25:15;;;;;;;13.50;8.82;;;9.90;99.30;;;;;;4999390;28;20107;-76
2023/03/30 07:27:41;;;;;;;16.42;8.63;;;9.90;99.30;;;;;;5001708;28;20108;-76
2023/03/30 07:30:08;;;;;;;15.77;8.40;;;10.00;99.20;;;;;;5008260;28;20066;-77
2023/03/30 07:32:35;;;;;;;17.83;9.27;;;10.00;99.40;;;;;;4997824;28;20039;-77
2023/03/30 07:35:00;;;;;;;22.77;9.82;;;10.00;99.20;;;;;;4996819;28;20033;-77
2023/03/30 07:37:27;;;;;;;18.88;8.48;;;10.00;99.00;;;;;;4997886;28;20034;-76
2023/03/30 07:39:53;;;;;;;14.43;8.48;;;10.00;99.70;;;;;;5001363;28;20511;-77
2023/03/30 07:42:19;;;;;;;18.15;9.32;;;10.00;99.90;;;;;;4996173;28;20033;-76
2023/03/30 07:44:45;;;;;;;15.93;8.70;;;10.00;99.90;;;;;;4999377;28;20105;-76
2023/03/30 07:47:11;;;;;;;14.38;8.02;;;10.20;99.80;;;;;;5002339;28;20391;-76
2023/03/30 07:49:37;;;;;;;17.50;9.27;;;10.20;99.90;;;;;;5007362;28;20045;-76
2023/03/30 07:52:02;;;;;;;16.30;8.13;;;10.30;99.80;;;;;;4995906;28;20607;-76
2023/03/30 07:54:28;;;;;;;14.77;8.73;;;10.30;99.10;;;;;;5004576;28;20055;-76
2023/03/30 07:56:54;;;;;;;17.13;8.95;;;10.30;99.20;;;;;;5003296;28;20045;-76
2023/03/30 07:59:21;;;;;;;16.90;8.95;;;10.40;98.70;;;;;;5000983;28;20112;-77
2023/03/30 08:01:49;;;;;;;15.65;8.98;;;10.30;99.10;;;;;;5001981;28;20379;-75
2023/03/30 08:04:16;;;;;;;24.35;9.65;;;10.30;99.90;;;;;;5001277;28;20037;-76
2023/03/30 08:06:41;;;;;;;17.50;9.23;;;10.30;99.90;;;;;;5002022;28;20332;-77
2023/03/30 08:09:08;;;;;;;16.73;8.95;;;10.30;99.90;;;;;;4997493;28;20042;-76
2023/03/30 08:11:34;;;;;;;18.63;10.07;;;10.30;99.50;;;;;;4993043;28;20117;-75
2023/03/30 08:14:01;;;;;;;21.13;9.65;;;10.40;99.30;;;;;;4995344;28;20402;-75
2023/03/30 08:16:27;;;;;;;17.40;8.95;;;10.40;99.30;;;;;;4992838;28;20058;-76
2023/03/30 08:18:53;;;;;;;19.50;9.55;;;10.50;99.60;;;;;;4993180;28;20491;-75
2023/03/30 08:21:20;;;;;;;14.02;9.45;;;10.40;99.60;;;;;;4999728;28;20449;-76
2023/03/30 08:23:46;;;;;;;15.43;8.80;;;10.40;99.00;;;;;;4995054;28;20136;-76
2023/03/30 08:26:12;;;;;;;18.75;9.85;;;10.50;99.10;;;;;;5000468;28;20036;-76
2023/03/30 08:28:38;;;;;;;20.77;10.52;;;10.50;98.90;;;;;;5007901;28;20069;-77
2023/03/30 08:31:05;;;;;;;19.00;8.98;;;10.60;99.00;;;;;;5001756;28;20033;-77
2023/03/30 08:33:31;;;;;;;21.83;13.80;;;10.60;98.70;;;;;;4999320;28;20107;-78
2023/03/30 08:35:57;;;;;;;25.25;10.63;;;10.70;99.30;;;;;;4998916;28;20026;-78
2023/03/30 08:38:23;;;;;;;20.55;10.60;;;10.60;99.30;;;;;;4999804;28;20479;-77
2023/03/30 08:40:50;;;;;;;17.92;10.82;;;10.60;98.80;;;;;;4996902;28;20026;-76
2023/03/30 08:43:40;;;;;;;25.20;11.70;;;10.70;98.60;;;;;;4995966;28;20053;-76
2023/03/30 08:46:11;;;;;;;22.25;10.00;;;10.80;98.70;;;;;;4999556;28;20428;-76
2023/03/30 08:48:38;;;;;;;21.15;9.48;;;10.80;98.40;;;;;;4998914;28;20164;-80
2023/03/30 08:51:10;;;;;;;21.42;10.38;;;10.90;97.10;;;;;;4996413;28;20083;-76
2023/03/30 08:53:36;;;;;;;19.20;11.52;;;10.90;97.20;;;;;;4994173;28;20037;-76
2023/03/30 08:56:13;;;;;;;18.88;10.95;;;11.00;97.20;;;;;;5002238;28;20026;-75
2023/03/30 08:59:04;;;;;;;17.73;9.65;;;11.10;97.10;;;;;;4996826;28;20090;-76
2023/03/30 09:01:51;;;;;;;21.75;9.98;;;11.20;96.30;;;;;;4999518;28;20034;-75
2023/03/30 09:04:26;;;;;;;22.98;8.65;;;11.20;95.80;;;;;;5003409;28;20029;-76
2023/03/30 09:07:02;;;;;;;17.88;9.85;;;11.20;96.00;;;;;;5003384;28;20419;-76
2023/03/30 09:09:31;;;;;;;17.52;9.43;;;11.20;96.30;;;;;;5005364;28;20045;-76
2023/03/30 09:12:18;;;;;;;16.98;9.60;;;11.20;97.20;;;;;;5015538;28;20519;-77
2023/03/30 09:14:49;;;;;;;15.15;9.93;;;11.30;97.20;;;;;;5003883;28;20037;-76
2023/03/30 09:17:46;;;;;;;19.48;10.07;;;11.30;97.80;;;;;;5002977;28;20049;-76
2023/03/30 09:20:24;;;;;;;15.98;9.32;;;11.20;98.50;;;;;;5003149;28;20033;-77
2023/03/30 09:22:52;;;;;;;21.10;9.93;;;11.00;98.80;;;;;;5009335;28;20546;-75
2023/03/30 09:25:39;;;;;;;18.20;10.15;;;10.80;98.80;;;;;;5011289;28;20022;-75
2023/03/30 09:28:53;;;;;;;24.58;10.55;;;10.80;99.10;;;;;;4999086;28;20095;-75
2023/03/30 09:32:06;;;;;;;21.75;11.05;;;10.90;99.80;;;;;;4995129;28;20034;-77
2023/03/30 09:34:44;;;;;;;22.63;10.27;;;10.90;98.90;;;;;;4942247;28;20679;-76
2023/03/30 09:37:17;;;;;;;15.75;9.13;;;11.00;98.90;;;;;;4948598;28;20084;-77
2023/03/30 09:39:47;;;;;;;17.48;9.00;;;11.00;96.80;;;;;;4981985;28;20049;-77
2023/03/30 09:42:23;;;;;;;17.98;9.88;;;11.10;95.70;;;;;;5004757;28;20466;-76
2023/03/30 09:44:54;;;;;;;18.92;11.27;;;11.40;96.30;;;;;;5006577;28;20030;-75
2023/03/30 09:47:38;;;;;;;18.30;9.05;;;11.60;96.30;;;;;;5012544;28;20065;-76
2023/03/30 09:50:10;;;;;;;14.77;8.98;;;11.70;95.60;;;;;;5009901;28;20045;-75
2023/03/30 09:52:40;;;;;;;17.77;9.43;;;11.70;95.90;;;;;;5007044;28;21166;-76
2023/03/30 09:55:21;;;;;;;17.45;9.27;;;11.70;96.10;;;;;;5005081;28;20069;-75
2023/03/30 09:57:48;;;;;;;17.95;9.82;;;11.80;96.20;;;;;;5012676;28;20029;-75
2023/03/30 10:00:32;;;;;;;24.45;14.50;;;11.80;96.90;;;;;;5006978;28;20477;-75
2023/03/30 10:03:01;;;;;;;24.13;10.82;;;11.80;96.80;;;;;;5004597;28;20113;-75
2023/03/30 10:05:29;;;;;;;23.10;9.38;;;11.80;97.10;;;;;;5013971;28;20115;-73
2023/03/30 10:07:58;;;;;;;15.77;9.60;;;11.80;97.00;;;;;;5008931;28;20053;-77
2023/03/30 10:10:29;;;;;;;18.15;9.70;;;12.00;96.90;;;;;;5015173;28;20033;-76
2023/03/30 10:13:05;;;;;;;16.98;9.00;;;12.00;96.50;;;;;;5001872;28;20618;-78
2023/03/30 10:15:35;;;;;;;21.90;10.10;;;12.00;96.00;;;;;;5012046;28;20520;-76
2023/03/30 10:18:08;;;;;;;24.80;10.57;;;12.10;95.90;;;;;;5003648;28;20049;-76
2023/03/30 10:20:37;;;;;;;22.27;10.40;;;12.00;96.20;;;;;;5001825;28;20041;-77
2023/03/30 10:23:05;;;;;;;17.20;9.35;;;12.00;96.30;;;;;;5011619;28;20052;-76
2023/03/30 10:25:32;;;;;;;17.77;10.10;;;12.10;96.10;;;;;;5019566;28;20041;-76
2023/03/30 10:28:02;;;;;;;16.73;9.52;;;12.10;96.10;;;;;;5010887;28;20030;-76
2023/03/30 10:30:28;;;;;;;16.83;10.95;;;12.00;96.30;;;;;;5006673;28;20092;-75
2023/03/30 10:32:58;;;;;;;16.65;10.48;;;12.10;95.90;;;;;;5017790;28;20057;-76
2023/03/30 10:35:26;;;;;;;25.83;10.55;;;12.20;96.00;;;;;;5006965;28;20100;-75
2023/03/30 10:37:55;;;;;;;22.13;10.70;;;12.40;96.10;;;;;;5011707;28;20084;-76
2023/03/30 10:40:26;;;;;;;21.17;10.25;;;12.40;95.50;;;;;;5005694;28;20045;-76
2023/03/30 10:42:57;;;;;;;16.08;9.35;;;12.40;94.50;;;;;;5005291;28;20041;-75
2023/03/30 10:45:47;;;;;;;16.70;8.60;;;12.30;94.40;;;;;;5012171;28;20056;-76
2023/03/30 10:48:25;;;;;;;17.75;9.95;;;12.50;94.70;;;;;;5003581;28;20662;-77
2023/03/30 10:51:02;;;;;;;18.42;10.82;;;12.60;95.10;;;;;;4997842;28;20026;-76
2023/03/30 10:53:54;;;;;;;20.35;9.98;;;12.60;95.20;;;;;;5005588;28;20112;-76
2023/03/30 10:56:53;;;;;;;18.08;8.80;;;12.60;95.10;;;;;;4998993;28;20033;-76
2023/03/30 10:59:19;;;;;;;21.02;9.80;;;12.60;95.40;;;;;;4989981;28;20096;-76
2023/03/30 11:01:55;;;;;;;15.75;9.73;;;12.70;95.30;;;;;;4998545;28;20037;-76
2023/03/30 11:04:39;;;;;;;17.13;10.35;;;12.80;95.60;;;;;;5012798;28;20021;-76
2023/03/30 11:07:34;;;;;;;31.27;9.98;;;12.70;94.60;;;;;;5003114;28;20383;-76
2023/03/30 11:10:14;;;;;;;21.55;11.23;;;12.90;95.00;;;;;;5005413;28;20164;-75
2023/03/30 11:12:45;;;;;;;17.65;9.45;;;12.90;94.90;;;;;;5008247;28;20453;-76
2023/03/30 11:15:18;;;;;;;21.48;10.02;;;12.80;95.30;;;;;;5014019;28;20774;-74
2023/03/30 11:17:54;;;;;;;18.08;10.80;;;12.90;95.20;;;;;;5000702;28;20029;-77
2023/03/30 11:20:32;;;;;;;17.80;9.43;;;12.80;95.00;;;;;;5002920;28;20109;-77
2023/03/30 11:23:10;;;;;;;39.80;23.15;;;12.70;95.30;;;;;;5000807;28;20526;-76
2023/03/30 11:25:50;;;;;;;23.67;12.93;;;12.70;94.90;;;;;;5001095;28;20033;-77
2023/03/30 11:28:34;;;;;;;16.85;10.10;;;12.90;94.40;;;;;;5007895;28;20053;-76
2023/03/30 11:31:13;;;;;;;21.13;11.47;;;12.90;94.70;;;;;;5007370;28;20022;-76
2023/03/30 11:33:49;;;;;;;20.05;14.95;;;12.90;94.70;;;;;;5000362;28;20632;-77
2023/03/30 11:36:22;;;;;;;19.25;10.60;;;13.10;94.70;;;;;;5005620;28;20137;-75
2023/03/30 11:38:50;;;;;;;18.83;9.80;;;13.10;94.50;;;;;;5012781;28;20037;-76
2023/03/30 11:41:34;;;;;;;18.20;9.77;;;13.20;94.80;;;;;;5002594;28;20022;-78
2023/03/30 11:44:00;;;;;;;16.88;9.32;;;13.30;95.30;;;;;;5005054;28;20048;-78
2023/03/30 11:46:38;;;;;;;16.25;10.15;;;13.20;95.20;;;;;;5000510;28;20034;-77
2023/03/30 11:49:23;;;;;;;20.30;10.38;;;13.10;95.10;;;;;;5005470;28;21016;-77
2023/03/30 11:52:07;;;;;;;17.58;9.80;;;12.90;95.40;;;;;;4997682;28;20030;-75
2023/03/30 11:54:45;;;;;;;17.10;9.83;;;12.90;95.50;;;;;;5002255;28;20042;-76
2023/03/30 11:57:41;;;;;;;17.42;9.50;;;12.90;95.50;;;;;;5008281;28;20143;-76
2023/03/30 12:00:31;;;;;;;21.23;9.82;;;12.90;95.20;;;;;;5006953;28;20542;-75
2023/03/30 12:03:06;;;;;;;20.45;10.80;;;12.90;95.10;;;;;;4999553;28;20037;-75
2023/03/30 12:05:47;;;;;;;16.40;9.43;;;12.90;95.60;;;;;;4999472;28;20026;-75
2023/03/30 12:08:51;;;;;;;17.67;9.40;;;13.20;95.40;;;;;;4998805;28;20026;-75
2023/03/30 12:11:37;;;;;;;21.13;10.80;;;13.40;95.20;;;;;;4998121;28;20030;-74
2023/03/30 12:14:23;;;;;;;23.45;10.73;;;13.50;94.80;;;;;;5006200;28;20034;-75
2023/03/30 12:16:53;;;;;;;21.30;10.50;;;13.40;95.20;;;;;;5007333;28;20098;-75
2023/03/30 12:19:39;;;;;;;18.27;10.23;;;13.50;95.30;;;;;;4999472;28;20080;-76
2023/03/30 12:22:14;;;;;;;24.48;10.73;;;13.40;95.10;;;;;;4998985;28;20553;-76
2023/03/30 12:25:13;;;;;;;18.67;9.20;;;13.30;95.30;;;;;;5006029;28;20053;-77
2023/03/30 12:27:59;;;;;;;19.65;10.77;;;13.40;95.80;;;;;;5000802;28;20404;-76
2023/03/30 12:30:30;;;;;;;20.33;10.57;;;13.40;95.90;;;;;;5001064;28;20060;-75
2023/03/30 12:33:09;;;;;;;17.52;9.52;;;13.40;95.80;;;;;;5004687;28;20038;-75
2023/03/30 12:35:52;;;;;;;27.15;10.75;;;13.30;95.80;;;;;;5001772;28;20048;-75
2023/03/30 12:38:28;;;;;;;19.25;12.00;;;13.20;96.00;;;;;;4998840;28;20461;-75
2023/03/30 12:41:13;;;;;;;17.95;11.07;;;13.30;96.10;;;;;;5009734;28;20460;-75
2023/03/30 12:43:47;;;;;;;21.63;10.48;;;13.30;96.10;;;;;;4997153;28;20075;-75
2023/03/30 12:46:42;;;;;;;21.45;11.10;;;13.30;96.30;;;;;;5000458;28;20527;-75
2023/03/30 12:49:35;;;;;;;;;;;13.30;96.30;;;;;;4998564;28;20518;-75
2023/03/30 12:52:09;;;;;;;21.02;10.50;;;13.30;96.30;;;;;;5000463;28;20498;-73
2023/03/30 12:55:02;;;;;;;16.48;9.68;;;13.40;96.60;;;;;;5001414;28;20064;-74
2023/03/30 12:57:56;;;;;;;16.38;9.35;;;13.30;96.40;;;;;;4996230;28;20042;-74
2023/03/30 13:00:43;;;;;;;17.45;9.75;;;13.20;96.50;;;;;;5000909;28;20034;-75
2023/03/30 13:03:30;;;;;;;17.42;10.32;;;13.20;96.90;;;;;;5000478;28;20084;-75
2023/03/30 13:05:59;;;;;;;18.05;11.00;;;13.20;96.70;;;;;;5002681;28;20026;-75
2023/03/30 13:08:39;;;;;;;27.40;12.02;;;13.10;96.90;;;;;;5001252;28;20117;-74